| time (UTC) | temp F | wind direction | speed MPH | gust MPH | rain 1hr in | rain 24hr in | rain mn in | humidity % | barometer mb |
| 20260506030106 | 62 | 253 | 2.0 | 5.0 | 0.00 | 0.33 | 0.25 | 56 | 1006.5 |
| 20260506024549 | 64 | 249 | 2.0 | 6.0 | 0.00 | 0.33 | 0.25 | 53 | 1006.4 |
| 20260506023029 | 65 | 267 | 4.0 | 8.0 | 0.00 | 0.33 | 0.25 | 51 | 1006.2 |
| 20260506021515 | 66 | 255 | 6.0 | 11.0 | 0.00 | 0.33 | 0.25 | 49 | 1006.0 |
| 20260506020103 | 67 | 287 | 4.0 | 8.0 | 0.00 | 0.33 | 0.25 | 46 | 1006.0 |
| 20260506013023 | 68 | 295 | 0.0 | 0.0 | 0.00 | 0.37 | 0.25 | 43 | 1005.9 |
| 20260506011504 | 68 | 297 | 0.0 | 0.0 | 0.00 | 0.37 | 0.25 | 45 | 1006.1 |
| 20260506010059 | 68 | 279 | 1.0 | 5.0 | 0.00 | 0.37 | 0.25 | 44 | 1006.1 |
| 20260506004533 | 68 | 260 | 2.0 | 6.0 | 0.00 | 0.39 | 0.25 | 47 | 1006.1 |
| 20260506003019 | 67 | 113 | 1.0 | 5.0 | 0.00 | 0.39 | 0.25 | 47 | 1006.2 |
| 20260506001611 | 67 | 130 | 3.0 | 5.0 | 0.00 | 0.39 | 0.25 | 45 | 1006.2 |
| 20260506000054 | 66 | 132 | 2.0 | 5.0 | 0.00 | 0.39 | 0.25 | 46 | 1006.3 |
| 20260505234531 | 66 | 123 | 3.0 | 6.0 | 0.00 | 0.43 | 0.25 | 47 | 1006.4 |
| 20260505233012 | 66 | 60 | 0.0 | 0.0 | 0.00 | 0.43 | 0.25 | 50 | 1006.5 |
| 20260505231607 | 65 | 123 | 4.0 | 8.0 | 0.00 | 0.43 | 0.25 | 50 | 1006.7 |
| 20260505230101 | 65 | 127 | 2.0 | 8.0 | 0.00 | 0.43 | 0.25 | 50 | 1006.8 |
| 20260505224603 | 64 | 11 | 1.0 | 4.0 | 0.00 | 0.43 | 0.25 | 52 | 1007.0 |
| 20260505223048 | 64 | 320 | 4.0 | 6.0 | 0.00 | 0.43 | 0.25 | 51 | 1007.2 |
| 20260505221520 | 64 | 293 | 0.0 | 0.0 | 0.00 | 0.43 | 0.25 | 55 | 1007.3 |
| 20260505220113 | 64 | 336 | 0.0 | 4.0 | 0.00 | 0.43 | 0.25 | 54 | 1007.5 |
| 20260505214559 | 63 | 329 | 2.0 | 5.0 | 0.00 | 0.43 | 0.25 | 54 | 1007.6 |
| 20260505213037 | 62 | 65 | 2.0 | 7.0 | 0.00 | 0.43 | 0.25 | 61 | 1007.7 |
| 20260505211518 | 62 | 63 | 3.0 | 5.0 | 0.00 | 0.43 | 0.25 | 59 | 1007.9 |
| 20260505204554 | 61 | 108 | 2.0 | 7.0 | 0.00 | 0.48 | 0.25 | 58 | 1008.3 |
| 20260505203034 | 60 | 281 | 3.0 | 7.0 | 0.00 | 0.48 | 0.25 | 63 | 1008.2 |
| 20260505201511 | 59 | 242 | 5.0 | 10.0 | 0.00 | 0.48 | 0.25 | 67 | 1008.2 |
| 20260505200100 | 58 | 236 | 4.0 | 7.0 | 0.00 | 0.48 | 0.25 | 67 | 1008.4 |
| 20260505194542 | 59 | 297 | 4.0 | 7.0 | 0.00 | 0.53 | 0.25 | 67 | 1008.5 |
| 20260505193026 | 58 | 269 | 4.0 | 8.0 | 0.00 | 0.53 | 0.25 | 68 | 1008.4 |
| 20260505191506 | 57 | 141 | 4.0 | 9.0 | 0.00 | 0.53 | 0.25 | 71 | 1008.6 |
| 20260505190100 | 56 | 258 | 5.0 | 9.0 | 0.00 | 0.53 | 0.25 | 74 | 1008.4 |
| 20260505184551 | 55 | 277 | 5.0 | 8.0 | 0.00 | 0.57 | 0.25 | 74 | 1008.4 |
| 20260505183027 | 54 | 217 | 3.0 | 7.0 | 0.00 | 0.57 | 0.25 | 75 | 1008.4 |
| 20260505181506 | 54 | 290 | 3.0 | 7.0 | 0.00 | 0.57 | 0.25 | 76 | 1008.5 |
| 20260505174540 | 52 | 293 | 4.0 | 6.0 | 0.00 | 0.57 | 0.25 | 79 | 1008.2 |
| 20260505173025 | 51 | 279 | 5.0 | 7.0 | 0.00 | 0.57 | 0.25 | 81 | 1008.1 |
| 20260505171508 | 51 | 277 | 5.0 | 9.0 | 0.00 | 0.57 | 0.25 | 82 | 1007.9 |
| 20260505170059 | 49 | 279 | 5.0 | 7.0 | 0.00 | 0.57 | 0.25 | 83 | 1007.8 |
| 20260505164542 | 49 | 265 | 5.0 | 8.0 | 0.00 | 0.57 | 0.25 | 86 | 1007.8 |
| 20260505163027 | 48 | 260 | 6.0 | 8.0 | 0.00 | 0.57 | 0.25 | 86 | 1007.7 |
| 20260505161504 | 47 | 260 | 7.0 | 11.0 | 0.00 | 0.57 | 0.25 | 87 | 1007.6 |
| 20260505160104 | 47 | 260 | 9.0 | 12.0 | 0.00 | 0.57 | 0.25 | 87 | 1007.5 |
| 20260505130105 | 47 | 248 | 5.0 | 8.0 | 0.00 | 0.57 | 0.25 | 86 | 1005.4 |
| 20260505121608 | 46 | 231 | 3.0 | 7.0 | 0.00 | 0.57 | 0.25 | 89 | 1005.3 |
| 20260505120055 | 46 | 275 | 4.0 | 7.0 | 0.00 | 0.57 | 0.25 | 89 | 1005.3 |
| 20260505114532 | 46 | 250 | 4.0 | 8.0 | 0.00 | 0.57 | 0.25 | 89 | 1005.2 |
| 20260505113010 | 46 | 267 | 3.0 | 6.0 | 0.00 | 0.57 | 0.25 | 89 | 1005.3 |
| 20260505111609 | 45 | 260 | 5.0 | 8.0 | 0.00 | 0.57 | 0.25 | 90 | 1005.3 |
| 20260505101507 | 45 | 245 | 7.0 | 9.0 | 0.01 | 0.57 | 0.25 | 90 | 1005.4 |
| 20260505100058 | 45 | 250 | 6.0 | 9.0 | 0.03 | 0.57 | 0.25 | 90 | 1005.4 |
| 20260505094537 | 45 | 258 | 5.0 | 8.0 | 0.03 | 0.57 | 0.25 | 90 | 1005.7 |
| 20260505091604 | 45 | 260 | 1.0 | 7.0 | 0.07 | 0.56 | 0.24 | 91 | 1005.9 |
| 20260505090036 | 45 | 258 | 0.0 | 0.0 | 0.06 | 0.54 | 0.22 | 91 | 1006.1 |
| 20260505084545 | 45 | 241 | 1.0 | 4.0 | 0.09 | 0.54 | 0.22 | 91 | 1006.1 |
| 20260505083030 | 45 | 29 | 0.0 | 1.0 | 0.09 | 0.53 | 0.21 | 90 | 1006.5 |
| 20260505081516 | 45 | 252 | 1.0 | 3.0 | 0.10 | 0.49 | 0.17 | 90 | 1006.3 |
| 20260505080055 | 45 | 253 | 4.0 | 7.0 | 0.16 | 0.48 | 0.16 | 90 | 1006.2 |
| 20260505074538 | 45 | 260 | 4.0 | 7.0 | 0.15 | 0.45 | 0.13 | 90 | 1006.3 |
| 20260505073022 | 45 | 215 | 3.0 | 8.0 | 0.16 | 0.44 | 0.12 | 90 | 1006.2 |
| 20260505071507 | 46 | 276 | 1.0 | 2.0 | 0.13 | 0.38 | 0.06 | 89 | 1007.0 |
| 20260505070106 | 46 | 276 | 0.0 | 0.0 | 0.07 | 0.32 | 0.00 | 88 | 1006.7 |
| 20260505064529 | 46 | 262 | 0.0 | 0.0 | 0.05 | 0.30 | 0.30 | 86 | 1006.1 |
| 20260505063105 | 47 | 232 | 3.0 | 5.0 | 0.03 | 0.28 | 0.28 | 84 | 1006.2 |
| 20260505061529 | 48 | 241 | 3.0 | 5.0 | 0.00 | 0.25 | 0.25 | 83 | 1006.0 |
| 20260505060107 | 47 | 248 | 3.0 | 6.0 | 0.00 | 0.25 | 0.25 | 84 | 1005.7 |
| 20260505054539 | 47 | 245 | 3.0 | 6.0 | 0.00 | 0.25 | 0.25 | 85 | 1005.8 |
| 20260505053004 | 47 | 272 | 1.0 | 4.0 | 0.00 | 0.25 | 0.25 | 85 | 1006.0 |
| 20260505051541 | 47 | 250 | 0.0 | 0.0 | 0.00 | 0.25 | 0.25 | 85 | 1005.8 |
| 20260505041525 | 48 | 227 | 5.0 | 11.0 | 0.01 | 0.25 | 0.25 | 80 | 1005.8 |
| 20260505040106 | 48 | 222 | 7.0 | 11.0 | 0.01 | 0.25 | 0.25 | 81 | 1005.2 |
| 20260505034529 | 48 | 235 | 3.0 | 8.0 | 0.00 | 0.24 | 0.24 | 83 | 1005.4 |
| 20260505033105 | 47 | 229 | 2.0 | 4.0 | 0.00 | 0.24 | 0.24 | 86 | 1005.7 |
| 20260505031527 | 47 | 214 | 2.0 | 5.0 | 0.00 | 0.24 | 0.24 | 87 | 1005.8 |